sensor_id;sensor_type;location;lat;lon;timestamp;pressure;altitude;pressure_sealevel;temperature;humidity
24230;BME280;12362;50.004;8.006;2023-09-08T00:00:56;100783.81;;;15.57;100.00
24230;BME280;12362;50.004;8.006;2023-09-08T00:03:21;100786.78;;;15.65;100.00
24230;BME280;12362;50.004;8.006;2023-09-08T00:05:47;100791.44;;;15.74;100.00
24230;BME280;12362;50.004;8.006;2023-09-08T00:08:12;100786.31;;;15.72;100.00
24230;BME280;12362;50.004;8.006;2023-09-08T00:10:38;100791.22;;;15.50;100.00
24230;BME280;12362;50.004;8.006;2023-09-08T00:13:03;100783.84;;;15.29;100.00
24230;BME280;12362;50.004;8.006;2023-09-08T00:15:29;100787.50;;;15.27;100.00
24230;BME280;12362;50.004;8.006;2023-09-08T00:17:54;100794.94;;;15.33;100.00
24230;BME280;12362;50.004;8.006;2023-09-08T00:20:22;100794.31;;;15.29;100.00
24230;BME280;12362;50.004;8.006;2023-09-08T00:22:47;100791.88;;;15.26;100.00
24230;BME280;12362;50.004;8.006;2023-09-08T00:25:13;100791.47;;;15.18;100.00
24230;BME280;12362;50.004;8.006;2023-09-08T00:27:38;100795.31;;;15.13;100.00
24230;BME280;12362;50.004;8.006;2023-09-08T00:30:05;100790.91;;;15.13;100.00
24230;BME280;12362;50.004;8.006;2023-09-08T00:32:30;100792.22;;;15.20;100.00
24230;BME280;12362;50.004;8.006;2023-09-08T00:34:56;100789.22;;;15.12;100.00
24230;BME280;12362;50.004;8.006;2023-09-08T00:37:21;100792.56;;;15.00;100.00
24230;BME280;12362;50.004;8.006;2023-09-08T00:39:47;100790.72;;;15.02;100.00
24230;BME280;12362;50.004;8.006;2023-09-08T00:42:12;100793.63;;;14.98;100.00
24230;BME280;12362;50.004;8.006;2023-09-08T00:44:37;100791.00;;;14.98;100.00
24230;BME280;12362;50.004;8.006;2023-09-08T00:47:03;100789.78;;;15.03;100.00
24230;BME280;12362;50.004;8.006;2023-09-08T00:49:29;100789.88;;;15.02;100.00
24230;BME280;12362;50.004;8.006;2023-09-08T00:51:55;100791.94;;;14.97;100.00
24230;BME280;12362;50.004;8.006;2023-09-08T00:54:20;100791.94;;;14.97;100.00
24230;BME280;12362;50.004;8.006;2023-09-08T00:56:46;100796.47;;;14.79;100.00
24230;BME280;12362;50.004;8.006;2023-09-08T00:59:12;100795.09;;;14.88;100.00
24230;BME280;12362;50.004;8.006;2023-09-08T01:01:38;100794.03;;;14.76;100.00
24230;BME280;12362;50.004;8.006;2023-09-08T01:04:03;100797.06;;;14.84;100.00
24230;BME280;12362;50.004;8.006;2023-09-08T01:06:30;100798.34;;;14.77;100.00
24230;BME280;12362;50.004;8.006;2023-09-08T01:08:58;100799.81;;;14.67;100.00
24230;BME280;12362;50.004;8.006;2023-09-08T01:11:24;100800.38;;;14.58;100.00
24230;BME280;12362;50.004;8.006;2023-09-08T01:13:50;100799.94;;;14.66;100.00
24230;BME280;12362;50.004;8.006;2023-09-08T01:16:15;100796.00;;;14.73;100.00
24230;BME280;12362;50.004;8.006;2023-09-08T01:18:41;100796.94;;;14.72;100.00
24230;BME280;12362;50.004;8.006;2023-09-08T01:23:59;100793.19;;;14.62;100.00
24230;BME280;12362;50.004;8.006;2023-09-08T01:26:31;100788.84;;;14.47;100.00
24230;BME280;12362;50.004;8.006;2023-09-08T01:28:59;100798.47;;;14.47;100.00
24230;BME280;12362;50.004;8.006;2023-09-08T01:31:26;100793.59;;;14.41;100.00
24230;BME280;12362;50.004;8.006;2023-09-08T01:33:52;100807.03;;;14.35;100.00
24230;BME280;12362;50.004;8.006;2023-09-08T01:36:17;100806.25;;;14.33;100.00
24230;BME280;12362;50.004;8.006;2023-09-08T01:38:43;100798.53;;;14.31;100.00
24230;BME280;12362;50.004;8.006;2023-09-08T01:41:08;100801.84;;;14.33;100.00
24230;BME280;12362;50.004;8.006;2023-09-08T01:43:34;100798.25;;;14.36;100.00
24230;BME280;12362;50.004;8.006;2023-09-08T01:46:00;100800.09;;;14.34;100.00
24230;BME280;12362;50.004;8.006;2023-09-08T01:48:25;100805.88;;;14.25;100.00
24230;BME280;12362;50.004;8.006;2023-09-08T01:50:51;100799.22;;;14.19;100.00
24230;BME280;12362;50.004;8.006;2023-09-08T01:53:16;100797.59;;;14.17;100.00
24230;BME280;12362;50.004;8.006;2023-09-08T01:55:42;100798.97;;;14.08;100.00
24230;BME280;12362;50.004;8.006;2023-09-08T01:58:07;100798.97;;;14.08;100.00
24230;BME280;12362;50.004;8.006;2023-09-08T02:00:33;100800.63;;;14.09;100.00
24230;BME280;12362;50.004;8.006;2023-09-08T02:02:58;100804.19;;;14.08;100.00
24230;BME280;12362;50.004;8.006;2023-09-08T02:05:24;100799.19;;;14.04;100.00
24230;BME280;12362;50.004;8.006;2023-09-08T02:07:51;100801.47;;;14.10;100.00
24230;BME280;12362;50.004;8.006;2023-09-08T02:10:17;100793.31;;;14.00;100.00
24230;BME280;12362;50.004;8.006;2023-09-08T02:12:45;100802.50;;;13.92;100.00
24230;BME280;12362;50.004;8.006;2023-09-08T02:15:11;100802.50;;;13.92;100.00
24230;BME280;12362;50.004;8.006;2023-09-08T02:17:37;100803.00;;;13.98;100.00
24230;BME280;12362;50.004;8.006;2023-09-08T02:20:03;100799.63;;;13.81;100.00
24230;BME280;12362;50.004;8.006;2023-09-08T02:22:29;100804.28;;;13.76;100.00
24230;BME280;12362;50.004;8.006;2023-09-08T02:24:54;100800.41;;;13.83;100.00
24230;BME280;12362;50.004;8.006;2023-09-08T02:27:22;100801.50;;;13.94;100.00
24230;BME280;12362;50.004;8.006;2023-09-08T02:29:49;100801.41;;;13.80;100.00
24230;BME280;12362;50.004;8.006;2023-09-08T02:32:15;100796.97;;;13.82;100.00
24230;BME280;12362;50.004;8.006;2023-09-08T02:34:40;100801.25;;;13.83;100.00
24230;BME280;12362;50.004;8.006;2023-09-08T02:37:08;100797.22;;;13.78;100.00
24230;BME280;12362;50.004;8.006;2023-09-08T02:39:34;100804.13;;;13.79;100.00
24230;BME280;12362;50.004;8.006;2023-09-08T02:42:01;100800.56;;;13.80;100.00
24230;BME280;12362;50.004;8.006;2023-09-08T02:44:27;100800.34;;;13.84;100.00
24230;BME280;12362;50.004;8.006;2023-09-08T02:46:53;100799.56;;;13.82;100.00
24230;BME280;12362;50.004;8.006;2023-09-08T02:49:18;100806.63;;;13.80;100.00
24230;BME280;12362;50.004;8.006;2023-09-08T02:51:44;100805.97;;;13.77;100.00
24230;BME280;12362;50.004;8.006;2023-09-08T02:54:09;100799.13;;;13.74;100.00
24230;BME280;12362;50.004;8.006;2023-09-08T02:56:36;100807.72;;;13.76;100.00
24230;BME280;12362;50.004;8.006;2023-09-08T02:59:01;100808.06;;;13.70;100.00
24230;BME280;12362;50.004;8.006;2023-09-08T03:01:27;100804.53;;;13.71;100.00
24230;BME280;12362;50.004;8.006;2023-09-08T03:03:52;100797.69;;;13.69;100.00
24230;BME280;12362;50.004;8.006;2023-09-08T03:06:20;100806.03;;;13.60;100.00
24230;BME280;12362;50.004;8.006;2023-09-08T03:08:46;100808.59;;;13.62;100.00
24230;BME280;12362;50.004;8.006;2023-09-08T03:11:12;100809.66;;;13.58;100.00
24230;BME280;12362;50.004;8.006;2023-09-08T03:13:39;100809.56;;;13.59;100.00
24230;BME280;12362;50.004;8.006;2023-09-08T03:16:05;100810.31;;;13.46;100.00
24230;BME280;12362;50.004;8.006;2023-09-08T03:18:35;100806.13;;;13.43;100.00
24230;BME280;12362;50.004;8.006;2023-09-08T03:21:05;100813.84;;;13.45;100.00
24230;BME280;12362;50.004;8.006;2023-09-08T03:23:41;100809.38;;;13.31;100.00
24230;BME280;12362;50.004;8.006;2023-09-08T03:26:09;100801.63;;;13.30;100.00
24230;BME280;12362;50.004;8.006;2023-09-08T03:28:35;100804.22;;;13.30;100.00
24230;BME280;12362;50.004;8.006;2023-09-08T03:31:02;100804.44;;;13.42;100.00
24230;BME280;12362;50.004;8.006;2023-09-08T03:33:30;100805.88;;;13.48;100.00
24230;BME280;12362;50.004;8.006;2023-09-08T03:35:55;100796.19;;;13.50;100.00
24230;BME280;12362;50.004;8.006;2023-09-08T03:38:21;100805.63;;;13.37;100.00
24230;BME280;12362;50.004;8.006;2023-09-08T03:40:47;100797.69;;;13.23;100.00
24230;BME280;12362;50.004;8.006;2023-09-08T03:43:13;100797.81;;;13.20;100.00
24230;BME280;12362;50.004;8.006;2023-09-08T03:45:39;100797.09;;;13.33;100.00
24230;BME280;12362;50.004;8.006;2023-09-08T03:48:05;100793.66;;;13.33;100.00
24230;BME280;12362;50.004;8.006;2023-09-08T03:50:31;100800.34;;;13.21;100.00
24230;BME280;12362;50.004;8.006;2023-09-08T03:52:56;100803.03;;;13.20;100.00
24230;BME280;12362;50.004;8.006;2023-09-08T03:55:23;100806.91;;;13.13;100.00
24230;BME280;12362;50.004;8.006;2023-09-08T03:57:48;100805.38;;;13.09;100.00
24230;BME280;12362;50.004;8.006;2023-09-08T04:00:14;100811.41;;;13.09;100.00
24230;BME280;12362;50.004;8.006;2023-09-08T04:02:45;100817.41;;;13.11;100.00
24230;BME280;12362;50.004;8.006;2023-09-08T04:05:11;100809.81;;;13.07;100.00
24230;BME280;12362;50.004;8.006;2023-09-08T04:07:37;100816.03;;;13.04;100.00
24230;BME280;12362;50.004;8.006;2023-09-08T04:10:03;100822.78;;;13.08;100.00
24230;BME280;12362;50.004;8.006;2023-09-08T04:12:28;100809.81;;;13.07;100.00
24230;BME280;12362;50.004;8.006;2023-09-08T04:14:54;100807.31;;;13.05;100.00
24230;BME280;12362;50.004;8.006;2023-09-08T04:17:20;100812.38;;;13.08;100.00
24230;BME280;12362;50.004;8.006;2023-09-08T04:19:45;100809.50;;;13.13;100.00
24230;BME280;12362;50.004;8.006;2023-09-08T04:22:11;100817.06;;;13.02;100.00
24230;BME280;12362;50.004;8.006;2023-09-08T04:24:37;100814.66;;;12.97;100.00
24230;BME280;12362;50.004;8.006;2023-09-08T04:27:03;100820.81;;;12.96;100.00
24230;BME280;12362;50.004;8.006;2023-09-08T04:29:30;100814.91;;;12.93;100.00
24230;BME280;12362;50.004;8.006;2023-09-08T04:31:55;100818.72;;;12.86;100.00
24230;BME280;12362;50.004;8.006;2023-09-08T04:34:21;100820.66;;;12.82;100.00
24230;BME280;12362;50.004;8.006;2023-09-08T04:36:46;100820.41;;;12.87;100.00
24230;BME280;12362;50.004;8.006;2023-09-08T04:39:12;100825.63;;;12.87;100.00
24230;BME280;12362;50.004;8.006;2023-09-08T04:41:38;100822.50;;;12.80;100.00
24230;BME280;12362;50.004;8.006;2023-09-08T04:44:04;100821.34;;;12.86;100.00
24230;BME280;12362;50.004;8.006;2023-09-08T04:46:30;100819.03;;;12.80;100.00
24230;BME280;12362;50.004;8.006;2023-09-08T04:48:56;100830.69;;;12.73;100.00
24230;BME280;12362;50.004;8.006;2023-09-08T04:51:22;100822.25;;;12.68;100.00
24230;BME280;12362;50.004;8.006;2023-09-08T04:53:48;100825.72;;;12.68;100.00
24230;BME280;12362;50.004;8.006;2023-09-08T04:56:14;100820.66;;;12.66;100.00
24230;BME280;12362;50.004;8.006;2023-09-08T04:58:41;100833.69;;;12.66;100.00
24230;BME280;12362;50.004;8.006;2023-09-08T05:01:06;100830.53;;;12.59;100.00
24230;BME280;12362;50.004;8.006;2023-09-08T05:03:32;100828.69;;;12.61;100.00
24230;BME280;12362;50.004;8.006;2023-09-08T05:05:58;100839.66;;;12.68;100.00
24230;BME280;12362;50.004;8.006;2023-09-08T05:08:24;100844.25;;;12.79;100.00
24230;BME280;12362;50.004;8.006;2023-09-08T05:10:49;100831.25;;;12.96;100.00
24230;BME280;12362;50.004;8.006;2023-09-08T05:13:16;100840.81;;;12.96;100.00
24230;BME280;12362;50.004;8.006;2023-09-08T05:15:42;100832.91;;;12.97;100.00
24230;BME280;12362;50.004;8.006;2023-09-08T05:18:12;100831.06;;;12.99;100.00
24230;BME280;12362;50.004;8.006;2023-09-08T05:20:38;100841.34;;;13.02;100.00
24230;BME280;12362;50.004;8.006;2023-09-08T05:23:04;100837.19;;;13.15;100.00
24230;BME280;12362;50.004;8.006;2023-09-08T05:25:29;100835.53;;;13.30;100.00
24230;BME280;12362;50.004;8.006;2023-09-08T05:27:55;100841.38;;;13.18;100.00
24230;BME280;12362;50.004;8.006;2023-09-08T05:30:22;100845.09;;;13.14;100.00
24230;BME280;12362;50.004;8.006;2023-09-08T05:32:48;100847.38;;;13.20;100.00
24230;BME280;12362;50.004;8.006;2023-09-08T05:35:14;100839.25;;;13.26;100.00
24230;BME280;12362;50.004;8.006;2023-09-08T05:37:40;100843.72;;;13.39;100.00
24230;BME280;12362;50.004;8.006;2023-09-08T05:40:06;100839.59;;;13.51;100.00
24230;BME280;12362;50.004;8.006;2023-09-08T05:42:32;100842.66;;;13.59;100.00
24230;BME280;12362;50.004;8.006;2023-09-08T05:44:57;100848.91;;;13.71;100.00
24230;BME280;12362;50.004;8.006;2023-09-08T05:47:23;100846.03;;;13.76;100.00
24230;BME280;12362;50.004;8.006;2023-09-08T05:49:49;100843.59;;;13.88;100.00
24230;BME280;12362;50.004;8.006;2023-09-08T05:52:14;100848.22;;;13.99;100.00
24230;BME280;12362;50.004;8.006;2023-09-08T05:54:41;100854.63;;;14.09;100.00
24230;BME280;12362;50.004;8.006;2023-09-08T05:57:06;100860.03;;;14.21;100.00
24230;BME280;12362;50.004;8.006;2023-09-08T05:59:32;100859.28;;;14.35;100.00
24230;BME280;12362;50.004;8.006;2023-09-08T06:01:58;100858.31;;;14.51;100.00
24230;BME280;12362;50.004;8.006;2023-09-08T06:04:23;100856.78;;;14.62;100.00
24230;BME280;12362;50.004;8.006;2023-09-08T06:06:49;100854.38;;;14.73;100.00
24230;BME280;12362;50.004;8.006;2023-09-08T06:09:14;100855.41;;;14.85;100.00
24230;BME280;12362;50.004;8.006;2023-09-08T06:11:42;100859.47;;;15.04;100.00
24230;BME280;12362;50.004;8.006;2023-09-08T06:14:09;100859.56;;;15.17;100.00
24230;BME280;12362;50.004;8.006;2023-09-08T06:16:38;100851.75;;;15.31;100.00
24230;BME280;12362;50.004;8.006;2023-09-08T06:19:03;100856.72;;;15.49;100.00
24230;BME280;12362;50.004;8.006;2023-09-08T06:21:29;100855.31;;;15.71;100.00
24230;BME280;12362;50.004;8.006;2023-09-08T06:23:55;100852.16;;;15.93;100.00
24230;BME280;12362;50.004;8.006;2023-09-08T06:26:21;100851.56;;;16.16;100.00
24230;BME280;12362;50.004;8.006;2023-09-08T06:28:47;100849.06;;;16.40;100.00
24230;BME280;12362;50.004;8.006;2023-09-08T06:31:12;100842.91;;;16.54;100.00
24230;BME280;12362;50.004;8.006;2023-09-08T06:33:41;100840.66;;;16.87;100.00
24230;BME280;12362;50.004;8.006;2023-09-08T06:36:06;100833.47;;;17.28;100.00
24230;BME280;12362;50.004;8.006;2023-09-08T06:38:32;100833.25;;;17.43;100.00
24230;BME280;12362;50.004;8.006;2023-09-08T06:40:59;100837.34;;;17.34;100.00
24230;BME280;12362;50.004;8.006;2023-09-08T06:43:26;100830.31;;;17.35;100.00
24230;BME280;12362;50.004;8.006;2023-09-08T06:45:58;100828.63;;;17.46;100.00
24230;BME280;12362;50.004;8.006;2023-09-08T06:48:24;100823.94;;;17.75;100.00
24230;BME280;12362;50.004;8.006;2023-09-08T06:50:53;100824.44;;;18.39;100.00
24230;BME280;12362;50.004;8.006;2023-09-08T06:53:19;100812.88;;;19.21;100.00
24230;BME280;12362;50.004;8.006;2023-09-08T06:55:45;100806.00;;;19.84;100.00
24230;BME280;12362;50.004;8.006;2023-09-08T06:58:10;100797.66;;;20.11;100.00
24230;BME280;12362;50.004;8.006;2023-09-08T07:00:37;100797.69;;;20.42;100.00
24230;BME280;12362;50.004;8.006;2023-09-08T07:03:03;100788.41;;;20.47;100.00
24230;BME280;12362;50.004;8.006;2023-09-08T07:05:28;100796.53;;;20.55;100.00
24230;BME280;12362;50.004;8.006;2023-09-08T07:07:54;100791.84;;;21.00;100.00
24230;BME280;12362;50.004;8.006;2023-09-08T07:10:20;100780.34;;;21.40;100.00
24230;BME280;12362;50.004;8.006;2023-09-08T07:12:46;100781.28;;;21.59;100.00
24230;BME280;12362;50.004;8.006;2023-09-08T07:15:12;100781.44;;;21.67;100.00
24230;BME280;12362;50.004;8.006;2023-09-08T07:17:38;100777.25;;;22.23;100.00
24230;BME280;12362;50.004;8.006;2023-09-08T07:20:04;100764.22;;;22.86;100.00
24230;BME280;12362;50.004;8.006;2023-09-08T07:22:31;100768.56;;;23.33;100.00
24230;BME280;12362;50.004;8.006;2023-09-08T07:24:56;100762.75;;;23.56;100.00
24230;BME280;12362;50.004;8.006;2023-09-08T07:27:22;100769.81;;;23.92;100.00
24230;BME280;12362;50.004;8.006;2023-09-08T07:29:47;100761.00;;;24.09;100.00
24230;BME280;12362;50.004;8.006;2023-09-08T07:32:15;100769.50;;;24.12;100.00
24230;BME280;12362;50.004;8.006;2023-09-08T07:34:41;100769.72;;;24.01;100.00
24230;BME280;12362;50.004;8.006;2023-09-08T07:37:07;100770.81;;;24.08;100.00
24230;BME280;12362;50.004;8.006;2023-09-08T07:39:33;100769.88;;;24.35;100.00
24230;BME280;12362;50.004;8.006;2023-09-08T07:41:58;100760.31;;;24.59;100.00
24230;BME280;12362;50.004;8.006;2023-09-08T07:44:24;100768.06;;;24.53;100.00
24230;BME280;12362;50.004;8.006;2023-09-08T07:46:49;100762.72;;;24.70;100.00
24230;BME280;12362;50.004;8.006;2023-09-08T07:49:18;100760.91;;;24.96;100.00
24230;BME280;12362;50.004;8.006;2023-09-08T07:51:47;100757.66;;;25.35;100.00
24230;BME280;12362;50.004;8.006;2023-09-08T07:54:13;100752.59;;;25.50;100.00
24230;BME280;12362;50.004;8.006;2023-09-08T07:56:38;100757.75;;;25.59;100.00
24230;BME280;12362;50.004;8.006;2023-09-08T07:59:06;100750.13;;;25.64;100.00
24230;BME280;12362;50.004;8.006;2023-09-08T08:01:31;100746.91;;;25.45;100.00
24230;BME280;12362;50.004;8.006;2023-09-08T08:03:58;100753.97;;;25.70;100.00
24230;BME280;12362;50.004;8.006;2023-09-08T08:06:23;100751.91;;;25.89;100.00
24230;BME280;12362;50.004;8.006;2023-09-08T08:08:49;100740.13;;;26.23;100.00
24230;BME280;12362;50.004;8.006;2023-09-08T08:11:16;100737.31;;;26.57;100.00
24230;BME280;12362;50.004;8.006;2023-09-08T08:13:43;100734.31;;;26.60;100.00
24230;BME280;12362;50.004;8.006;2023-09-08T08:16:09;100737.13;;;26.74;100.00
24230;BME280;12362;50.004;8.006;2023-09-08T08:18:34;100742.94;;;27.09;100.00
24230;BME280;12362;50.004;8.006;2023-09-08T08:21:00;100732.22;;;27.17;100.00
24230;BME280;12362;50.004;8.006;2023-09-08T08:23:28;100744.81;;;26.69;100.00
24230;BME280;12362;50.004;8.006;2023-09-08T08:25:53;100747.25;;;26.94;100.00
24230;BME280;12362;50.004;8.006;2023-09-08T08:28:19;100731.78;;;27.06;96.61
24230;BME280;12362;50.004;8.006;2023-09-08T08:30:45;100734.91;;;27.01;100.00
24230;BME280;12362;50.004;8.006;2023-09-08T08:33:13;100737.00;;;27.38;100.00
24230;BME280;12362;50.004;8.006;2023-09-08T08:35:39;100734.56;;;27.59;97.01
24230;BME280;12362;50.004;8.006;2023-09-08T08:38:04;100739.25;;;27.65;96.51
24230;BME280;12362;50.004;8.006;2023-09-08T08:40:30;100725.56;;;27.90;97.68
24230;BME280;12362;50.004;8.006;2023-09-08T08:42:57;100737.63;;;28.08;93.88
24230;BME280;12362;50.004;8.006;2023-09-08T08:45:23;100727.00;;;28.00;86.63
24230;BME280;12362;50.004;8.006;2023-09-08T08:47:50;100731.16;;;28.03;89.67
24230;BME280;12362;50.004;8.006;2023-09-08T08:50:16;100729.81;;;28.80;82.28
24230;BME280;12362;50.004;8.006;2023-09-08T08:52:42;100722.78;;;28.51;92.56
24230;BME280;12362;50.004;8.006;2023-09-08T08:55:09;100727.47;;;28.26;81.18
24230;BME280;12362;50.004;8.006;2023-09-08T08:57:39;100734.59;;;28.56;91.74
24230;BME280;12362;50.004;8.006;2023-09-08T09:00:09;100720.69;;;28.75;81.55
24230;BME280;12362;50.004;8.006;2023-09-08T09:02:40;100712.06;;;29.02;75.14
24230;BME280;12362;50.004;8.006;2023-09-08T09:05:11;100717.66;;;29.50;85.12
24230;BME280;12362;50.004;8.006;2023-09-08T09:07:37;100711.72;;;30.04;68.41
24230;BME280;12362;50.004;8.006;2023-09-08T09:10:04;100715.88;;;30.28;74.94
24230;BME280;12362;50.004;8.006;2023-09-08T09:12:29;100711.03;;;30.65;69.16
24230;BME280;12362;50.004;8.006;2023-09-08T09:14:58;100701.31;;;30.91;64.36
24230;BME280;12362;50.004;8.006;2023-09-08T09:17:23;100705.16;;;31.50;67.33
24230;BME280;12362;50.004;8.006;2023-09-08T09:19:49;100702.31;;;30.56;65.72
24230;BME280;12362;50.004;8.006;2023-09-08T09:22:19;100708.84;;;30.75;62.22
24230;BME280;12362;50.004;8.006;2023-09-08T09:24:46;100708.69;;;31.10;57.69
24230;BME280;12362;50.004;8.006;2023-09-08T09:27:12;100711.22;;;31.65;56.86
24230;BME280;12362;50.004;8.006;2023-09-08T09:29:48;100702.13;;;31.66;54.08
24230;BME280;12362;50.004;8.006;2023-09-08T09:32:15;100703.47;;;31.36;56.67
24230;BME280;12362;50.004;8.006;2023-09-08T09:35:07;100702.38;;;31.77;52.96
24230;BME280;12362;50.004;8.006;2023-09-08T09:37:33;100702.41;;;31.90;56.56
24230;BME280;12362;50.004;8.006;2023-09-08T09:40:00;100695.56;;;31.81;52.09
24230;BME280;12362;50.004;8.006;2023-09-08T09:42:27;100696.16;;;31.70;51.67
24230;BME280;12362;50.004;8.006;2023-09-08T09:44:53;100698.66;;;31.78;52.15
24230;BME280;12362;50.004;8.006;2023-09-08T09:47:19;100702.56;;;31.76;53.33
24230;BME280;12362;50.004;8.006;2023-09-08T09:49:46;100703.09;;;31.52;53.13
24230;BME280;12362;50.004;8.006;2023-09-08T09:52:13;100696.50;;;31.54;50.35
24230;BME280;12362;50.004;8.006;2023-09-08T09:54:48;100690.59;;;31.72;50.97
24230;BME280;12362;50.004;8.006;2023-09-08T09:57:20;100694.78;;;32.00;47.46
24230;BME280;12362;50.004;8.006;2023-09-08T09:59:46;100696.06;;;32.17;48.00
24230;BME280;12362;50.004;8.006;2023-09-08T10:02:16;100696.59;;;31.74;48.99
24230;BME280;12362;50.004;8.006;2023-09-08T10:04:45;100693.34;;;31.91;49.21
24230;BME280;12362;50.004;8.006;2023-09-08T10:07:13;100689.03;;;32.23;47.26
24230;BME280;12362;50.004;8.006;2023-09-08T10:09:40;100689.88;;;32.17;49.23
24230;BME280;12362;50.004;8.006;2023-09-08T10:12:08;100679.88;;;33.01;48.31
24230;BME280;12362;50.004;8.006;2023-09-08T10:14:40;100671.97;;;33.06;50.96
24230;BME280;12362;50.004;8.006;2023-09-08T10:17:08;100669.06;;;33.21;49.16
24230;BME280;12362;50.004;8.006;2023-09-08T10:19:37;100675.22;;;33.34;48.83
24230;BME280;12362;50.004;8.006;2023-09-08T10:22:11;100666.59;;;33.63;46.85
24230;BME280;12362;50.004;8.006;2023-09-08T10:24:38;100663.72;;;33.51;47.14
24230;BME280;12362;50.004;8.006;2023-09-08T10:27:10;100661.66;;;33.60;47.47
24230;BME280;12362;50.004;8.006;2023-09-08T10:29:36;100665.88;;;33.37;48.43
24230;BME280;12362;50.004;8.006;2023-09-08T10:32:02;100660.25;;;33.82;48.16
24230;BME280;12362;50.004;8.006;2023-09-08T10:34:29;100662.25;;;33.55;45.92
24230;BME280;12362;50.004;8.006;2023-09-08T10:36:55;100662.00;;;33.26;45.50
24230;BME280;12362;50.004;8.006;2023-09-08T10:39:39;100656.38;;;33.28;42.55
24230;BME280;12362;50.004;8.006;2023-09-08T10:44:41;100657.38;;;33.77;44.37
24230;BME280;12362;50.004;8.006;2023-09-08T10:47:07;100657.38;;;33.40;46.44
24230;BME280;12362;50.004;8.006;2023-09-08T10:49:36;100656.25;;;33.91;45.62
24230;BME280;12362;50.004;8.006;2023-09-08T10:52:08;100644.69;;;34.39;44.62
24230;BME280;12362;50.004;8.006;2023-09-08T10:54:45;100655.13;;;34.05;44.70
24230;BME280;12362;50.004;8.006;2023-09-08T10:57:15;100638.22;;;34.64;44.00
24230;BME280;12362;50.004;8.006;2023-09-08T10:59:48;100635.59;;;34.58;45.01
24230;BME280;12362;50.004;8.006;2023-09-08T11:02:35;100642.00;;;34.08;47.03
24230;BME280;12362;50.004;8.006;2023-09-08T11:05:03;100644.75;;;34.02;46.81
24230;BME280;12362;50.004;8.006;2023-09-08T11:07:31;100648.81;;;33.86;45.33
24230;BME280;12362;50.004;8.006;2023-09-08T11:09:57;100644.69;;;34.39;44.22
24230;BME280;12362;50.004;8.006;2023-09-08T11:12:26;100635.09;;;34.85;45.60
24230;BME280;12362;50.004;8.006;2023-09-08T11:14:52;100639.28;;;34.63;44.67
24230;BME280;12362;50.004;8.006;2023-09-08T11:17:18;100632.69;;;34.77;48.22
24230;BME280;12362;50.004;8.006;2023-09-08T11:19:48;100632.53;;;34.90;45.21
24230;BME280;12362;50.004;8.006;2023-09-08T11:22:15;100627.59;;;35.70;45.12
24230;BME280;12362;50.004;8.006;2023-09-08T11:24:42;100628.03;;;35.49;45.57
24230;BME280;12362;50.004;8.006;2023-09-08T11:27:08;100631.31;;;35.40;44.45
24230;BME280;12362;50.004;8.006;2023-09-08T11:29:34;100628.38;;;35.41;44.98
24230;BME280;12362;50.004;8.006;2023-09-08T11:32:00;100619.66;;;35.57;41.49
24230;BME280;12362;50.004;8.006;2023-09-08T11:34:25;100630.72;;;34.84;44.57
24230;BME280;12362;50.004;8.006;2023-09-08T11:36:51;100619.16;;;35.31;44.02
24230;BME280;12362;50.004;8.006;2023-09-08T11:39:18;100613.22;;;35.58;43.99
24230;BME280;12362;50.004;8.006;2023-09-08T11:41:44;100619.94;;;35.20;44.23
24230;BME280;12362;50.004;8.006;2023-09-08T11:44:15;100618.13;;;35.61;45.73
24230;BME280;12362;50.004;8.006;2023-09-08T11:46:41;100604.97;;;36.29;44.31
24230;BME280;12362;50.004;8.006;2023-09-08T11:49:07;100614.25;;;36.44;43.49
24230;BME280;12362;50.004;8.006;2023-09-08T11:51:32;100616.97;;;36.21;44.46
24230;BME280;12362;50.004;8.006;2023-09-08T11:53:58;100618.22;;;35.96;44.77
24230;BME280;12362;50.004;8.006;2023-09-08T11:56:24;100609.13;;;35.49;41.10
24230;BME280;12362;50.004;8.006;2023-09-08T11:58:49;100610.97;;;36.08;42.91
24230;BME280;12362;50.004;8.006;2023-09-08T12:01:15;100595.34;;;36.55;41.75
24230;BME280;12362;50.004;8.006;2023-09-08T12:03:52;100610.13;;;36.07;41.63
24230;BME280;12362;50.004;8.006;2023-09-08T12:06:18;100599.63;;;37.02;41.42
24230;BME280;12362;50.004;8.006;2023-09-08T12:08:44;100607.63;;;37.09;41.37
24230;BME280;12362;50.004;8.006;2023-09-08T12:11:10;100604.34;;;37.07;42.09
24230;BME280;12362;50.004;8.006;2023-09-08T12:13:36;100609.22;;;36.36;41.99
24230;BME280;12362;50.004;8.006;2023-09-08T12:16:01;100598.97;;;36.38;39.72
24230;BME280;12362;50.004;8.006;2023-09-08T12:18:47;100595.09;;;36.68;39.18
24230;BME280;12362;50.004;8.006;2023-09-08T12:21:13;100597.25;;;37.06;40.16
24230;BME280;12362;50.004;8.006;2023-09-08T12:23:50;100591.88;;;36.83;40.99
24230;BME280;12362;50.004;8.006;2023-09-08T12:26:16;100592.28;;;36.63;40.60
24230;BME280;12362;50.004;8.006;2023-09-08T12:28:42;100588.91;;;36.84;40.97
24230;BME280;12362;50.004;8.006;2023-09-08T12:31:13;100594.69;;;35.85;39.95
24230;BME280;12362;50.004;8.006;2023-09-08T12:33:39;100585.09;;;36.23;41.55
24230;BME280;12362;50.004;8.006;2023-09-08T12:36:16;100589.75;;;36.85;38.97
24230;BME280;12362;50.004;8.006;2023-09-08T12:38:51;100580.91;;;37.01;36.55
24230;BME280;12362;50.004;8.006;2023-09-08T12:41:18;100586.97;;;36.34;38.51
24230;BME280;12362;50.004;8.006;2023-09-08T12:43:44;100587.56;;;36.70;40.63
24230;BME280;12362;50.004;8.006;2023-09-08T12:46:10;100585.94;;;36.58;38.45